createdAt,value
2019-04-11T00:02:08.831Z,69.60
2019-04-11T00:04:35.102Z,69.30
2019-04-11T00:07:01.266Z,69.50
2019-04-11T00:09:27.444Z,70.30
2019-04-11T00:11:54.440Z,70.00
2019-04-11T00:14:22.109Z,69.90
2019-04-11T00:16:49.754Z,70.30
2019-04-11T00:19:16.095Z,70.30
2019-04-11T00:21:42.528Z,71.40
2019-04-11T00:24:08.681Z,71.00
2019-04-11T00:26:36.105Z,71.40
2019-04-11T00:29:03.939Z,71.10
2019-04-11T00:31:30.678Z,70.50
2019-04-11T00:33:56.886Z,71.70
2019-04-11T00:36:24.132Z,71.40
2019-04-11T00:38:50.945Z,71.30
2019-04-11T00:41:17.596Z,71.20
2019-04-11T00:43:45.380Z,71.20
2019-04-11T00:46:12.030Z,71.30
2019-04-11T00:48:39.178Z,71.50
2019-04-11T00:51:05.672Z,71.60
2019-04-11T00:53:31.899Z,71.70
2019-04-11T00:55:58.112Z,71.50
2019-04-11T00:58:25.553Z,71.70
2019-04-11T01:00:51.940Z,72.20
2019-04-11T01:03:18.207Z,71.90
2019-04-11T01:05:44.364Z,72.10
2019-04-11T01:08:11.474Z,72.10
2019-04-11T01:10:37.883Z,72.50
2019-04-11T01:13:05.050Z,73.00
2019-04-11T01:15:32.784Z,72.60
2019-04-11T01:17:58.927Z,72.70
2019-04-11T01:20:25.101Z,72.90
2019-04-11T01:22:52.356Z,72.90
2019-04-11T01:25:20.034Z,73.50
2019-04-11T01:27:46.579Z,73.30
2019-04-11T01:30:15.824Z,73.50
2019-04-11T01:32:42.323Z,74.70
2019-04-11T01:35:08.939Z,74.00
2019-04-11T01:37:35.841Z,74.20
2019-04-11T01:40:02.631Z,73.70
2019-04-11T01:42:29.486Z,73.90
2019-04-11T01:44:56.822Z,74.30
2019-04-11T01:47:43.218Z,73.90
2019-04-11T01:50:12.504Z,74.50
2019-04-11T01:52:38.872Z,74.30
2019-04-11T01:55:05.415Z,75.00
2019-04-11T01:57:32.582Z,74.90
2019-04-11T01:59:59.620Z,75.00
2019-04-11T02:02:34.737Z,74.90
2019-04-11T02:05:05.746Z,75.10
2019-04-11T02:07:32.222Z,75.10
2019-04-11T02:09:58.357Z,75.10
2019-04-11T02:12:24.496Z,75.00
2019-04-11T02:14:52.173Z,75.70
2019-04-11T02:17:18.880Z,76.00
2019-04-11T02:19:45.239Z,76.20
2019-04-11T02:22:28.596Z,75.70
2019-04-11T02:24:57.929Z,76.10
2019-04-11T02:27:26.025Z,76.10
2019-04-11T02:29:53.039Z,76.10
2019-04-11T02:32:21.253Z,76.00
2019-04-11T02:34:50.406Z,75.40
2019-04-11T02:37:17.353Z,76.40
2019-04-11T02:39:43.619Z,76.40
2019-04-11T02:42:10.845Z,77.40
2019-04-11T02:44:54.321Z,77.10
2019-04-11T02:47:11.523Z,76.40
2019-04-11T02:49:35.226Z,76.80
2019-04-11T02:52:02.710Z,77.00
2019-04-11T02:54:30.620Z,76.80
2019-04-11T02:56:57.729Z,77.10
2019-04-11T02:59:25.356Z,77.60
2019-04-11T03:01:52.965Z,77.40
2019-04-11T03:04:20.670Z,77.80
2019-04-11T03:06:47.959Z,76.90
2019-04-11T03:09:15.414Z,77.10
2019-04-11T03:11:42.979Z,77.40
2019-04-11T03:14:11.652Z,77.10
2019-04-11T03:16:49.460Z,77.00
2019-04-11T03:19:21.185Z,77.60
2019-04-11T03:21:39.238Z,77.40
2019-04-11T03:24:02.902Z,77.80
2019-04-11T03:26:31.052Z,78.20
2019-04-11T03:28:57.870Z,78.00
2019-04-11T03:34:38.603Z,78.80
2019-04-11T03:37:08.588Z,78.50
2019-04-11T03:39:13.191Z,78.40
2019-04-11T03:41:34.923Z,78.60
2019-04-11T03:43:57.995Z,78.90
2019-04-11T03:46:36.533Z,79.40
2019-04-11T03:48:55.864Z,79.00
2019-04-11T03:51:12.976Z,79.50
2019-04-11T03:53:41.050Z,79.80
2019-04-11T03:56:07.741Z,79.50
2019-04-11T03:58:34.947Z,79.90
2019-04-11T04:01:03.929Z,79.80
2019-04-11T04:03:31.027Z,79.90
2019-04-11T04:06:00.026Z,79.80
2019-04-11T04:08:27.080Z,79.90
2019-04-11T04:11:08.632Z,80.00
2019-04-11T04:13:38.973Z,80.10
2019-04-11T04:16:29.376Z,80.30
2019-04-11T04:19:01.092Z,80.20
2019-04-11T04:21:30.963Z,80.00
2019-04-11T04:23:59.254Z,80.10
2019-04-11T04:26:26.849Z,79.60
2019-04-11T04:28:53.528Z,80.60
2019-04-11T04:31:19.948Z,80.70
2019-04-11T04:33:47.650Z,80.90
2019-04-11T04:36:16.021Z,81.00
2019-04-11T04:38:44.368Z,80.90
2019-04-11T04:41:22.499Z,80.50
2019-04-11T04:43:41.330Z,81.10
2019-04-11T04:46:28.045Z,81.40
2019-04-11T04:48:38.010Z,81.20
2019-04-11T04:51:08.958Z,81.60
2019-04-11T04:53:33.760Z,81.20
2019-04-11T04:56:00.606Z,82.20
2019-04-11T04:58:27.471Z,82.20
2019-04-11T05:00:54.398Z,82.40
2019-04-11T05:03:22.295Z,82.20
2019-04-11T05:05:48.711Z,82.00
2019-04-11T05:08:16.543Z,83.40
2019-04-11T05:10:42.905Z,82.80
2019-04-11T05:13:09.954Z,82.40
2019-04-11T05:15:36.604Z,82.80
2019-04-11T05:18:04.127Z,82.60
2019-04-11T05:20:30.427Z,81.90
2019-04-11T05:22:57.973Z,83.20
2019-04-11T05:25:24.582Z,82.40
2019-04-11T05:27:50.706Z,83.10
2019-04-11T05:30:16.864Z,82.20
2019-04-11T05:32:45.108Z,84.10
2019-04-11T05:35:11.404Z,82.30
2019-04-11T05:37:37.795Z,81.90
2019-04-11T05:40:05.409Z,82.00
2019-04-11T05:42:31.677Z,82.40
2019-04-11T05:44:59.163Z,82.30
2019-04-11T05:47:25.638Z,82.30
2019-04-11T05:49:56.973Z,82.50
2019-04-11T05:52:24.109Z,82.20
2019-04-11T05:54:52.747Z,82.40
2019-04-11T05:57:23.743Z,82.70
2019-04-11T05:59:50.975Z,82.70
2019-04-11T06:02:26.846Z,82.60
2019-04-11T06:04:58.435Z,82.40
2019-04-11T06:07:47.250Z,82.10
2019-04-11T06:10:14.682Z,81.70
2019-04-11T06:12:59.515Z,81.00
2019-04-11T06:15:39.673Z,80.00
2019-04-11T06:18:07.019Z,79.50
2019-04-11T06:20:47.495Z,79.20
2019-04-11T06:23:32.305Z,78.60
2019-04-11T06:26:06.770Z,77.50
2019-04-11T06:28:34.617Z,75.70
2019-04-11T06:31:18.160Z,73.30
2019-04-11T06:33:46.968Z,71.20
2019-04-11T06:36:18.155Z,70.00
2019-04-11T06:38:47.124Z,67.30
2019-04-11T06:41:32.774Z,66.20
2019-04-11T06:44:01.263Z,65.80
2019-04-11T06:46:48.507Z,64.40
2019-04-11T06:49:25.265Z,63.10
2019-04-11T06:51:56.740Z,61.70
2019-04-11T06:54:41.114Z,61.50
2019-04-11T06:57:09.688Z,60.20
2019-04-11T06:59:43.515Z,59.50
2019-04-11T07:02:16.528Z,59.40
2019-04-11T07:04:41.863Z,59.00
2019-04-11T07:07:13.018Z,58.20
2019-04-11T07:09:41.438Z,58.00
2019-04-11T07:12:13.373Z,57.90
2019-04-11T07:14:47.573Z,56.90
2019-04-11T07:17:33.787Z,56.50
2019-04-11T07:20:04.874Z,56.60
2019-04-11T07:22:50.883Z,56.40
2019-04-11T07:25:22.278Z,55.70
2019-04-11T07:28:07.913Z,55.20
2019-04-11T07:30:53.936Z,55.20
2019-04-11T07:33:31.529Z,55.00
2019-04-11T07:36:16.477Z,53.50
2019-04-11T07:39:01.192Z,53.20
2019-04-11T07:41:36.719Z,53.30
2019-04-11T07:44:20.452Z,52.90
2019-04-11T07:46:50.033Z,51.70
2019-04-11T07:49:24.469Z,51.50
2019-04-11T07:51:52.869Z,51.40
2019-04-11T07:54:20.147Z,51.20
2019-04-11T07:56:48.647Z,51.10
2019-04-11T07:59:19.662Z,50.20
2019-04-11T08:02:05.812Z,49.90
2019-04-11T08:04:50.642Z,50.20
2019-04-11T08:07:24.812Z,48.30
2019-04-11T08:09:55.775Z,48.30
2019-04-11T08:12:23.834Z,48.60
2019-04-11T08:14:55.080Z,47.20
2019-04-11T08:17:34.963Z,48.00
2019-04-11T08:19:55.928Z,48.20
2019-04-11T08:22:30.789Z,47.40
2019-04-11T08:25:05.014Z,47.00
2019-04-11T08:27:33.711Z,46.10
2019-04-11T08:30:02.534Z,46.10
2019-04-11T08:32:46.384Z,45.80
2019-04-11T08:35:33.185Z,46.20
2019-04-11T08:38:02.805Z,44.50
2019-04-11T08:40:39.878Z,44.90
2019-04-11T08:43:07.922Z,45.30
2019-04-11T08:45:46.579Z,46.10
2019-04-11T08:48:12.962Z,45.10
2019-04-11T08:50:41.080Z,43.80
2019-04-11T08:53:18.609Z,44.00
2019-04-11T08:55:53.654Z,44.00
2019-04-11T08:58:16.939Z,44.10
2019-04-11T09:00:46.345Z,43.60
2019-04-11T09:03:40.036Z,43.10
2019-04-11T09:06:14.695Z,43.30
2019-04-11T09:08:58.556Z,41.90
2019-04-11T09:11:26.759Z,41.40
2019-04-11T09:13:55.678Z,40.90
2019-04-11T09:16:29.872Z,40.50
2019-04-11T09:18:59.618Z,41.20
2019-04-11T09:21:44.577Z,39.10
2019-04-11T09:24:12.915Z,40.40
2019-04-11T09:26:58.301Z,37.80
2019-04-11T09:29:30.423Z,38.00
2019-04-11T09:32:15.976Z,37.50
2019-04-11T09:34:44.337Z,38.20
2019-04-11T09:37:14.450Z,38.10
2019-04-11T09:39:43.420Z,37.20
2019-04-11T09:42:26.255Z,37.00
2019-04-11T09:44:57.171Z,37.70
2019-04-11T09:47:41.751Z,37.20
2019-04-11T09:50:26.698Z,35.80
2019-04-11T09:52:55.891Z,36.10
2019-04-11T09:55:39.599Z,35.20
2019-04-11T09:58:08.921Z,35.90
2019-04-11T10:00:41.005Z,36.40
2019-04-11T10:03:09.265Z,35.40
2019-04-11T10:05:38.263Z,35.80
2019-04-11T10:08:12.731Z,34.40
2019-04-11T10:10:59.688Z,33.90
2019-04-11T10:13:44.923Z,33.30
2019-04-11T10:16:26.182Z,34.00
2019-04-11T10:19:07.474Z,33.30
2019-04-11T10:21:35.751Z,34.70
2019-04-11T10:24:16.105Z,34.30
2019-04-11T10:26:58.773Z,34.90
2019-04-11T10:29:44.061Z,34.30
2019-04-11T10:32:12.251Z,34.40
2019-04-11T10:34:57.590Z,35.90
2019-04-11T10:37:23.883Z,36.70
2019-04-11T10:39:52.036Z,36.70
2019-04-11T10:42:18.195Z,37.10
2019-04-11T10:44:46.265Z,38.00
2019-04-11T10:47:22.963Z,38.30
2019-04-11T10:50:09.133Z,38.40
2019-04-11T10:52:38.462Z,38.60
2019-04-11T10:55:13.790Z,38.30
2019-04-11T10:57:46.658Z,39.30
2019-04-11T11:00:15.659Z,38.00
2019-04-11T11:02:47.445Z,37.90
2019-04-11T11:05:17.942Z,38.80
2019-04-11T11:07:45.662Z,38.80
2019-04-11T11:10:17.537Z,39.60
2019-04-11T11:12:55.415Z,39.30
2019-04-11T11:15:23.520Z,40.00
2019-04-11T11:18:28.121Z,39.00
2019-04-11T11:20:34.279Z,39.00
2019-04-11T11:22:57.236Z,38.40
2019-04-11T11:25:31.229Z,37.90
2019-04-11T11:27:57.955Z,38.00
2019-04-11T11:30:27.348Z,39.20
2019-04-11T11:32:53.857Z,38.90
2019-04-11T11:35:41.008Z,39.60
2019-04-11T11:38:13.567Z,39.80
2019-04-11T11:40:47.980Z,40.20
2019-04-11T11:43:16.951Z,40.50
2019-04-11T11:45:49.185Z,41.00
2019-04-11T11:48:29.637Z,41.30
2019-04-11T11:50:57.306Z,41.00
2019-04-11T11:53:42.808Z,40.40
2019-04-11T11:56:10.975Z,39.90
2019-04-11T11:58:47.853Z,40.30
2019-04-11T12:01:21.907Z,39.90
2019-04-11T12:04:01.303Z,38.40
2019-04-11T12:06:27.166Z,38.80
2019-04-11T12:09:12.167Z,40.10
2019-04-11T12:11:40.403Z,40.00
2019-04-11T12:14:11.728Z,40.20
2019-04-11T12:16:42.444Z,40.60
2019-04-11T12:19:16.204Z,41.30
2019-04-11T12:21:41.445Z,41.30
2019-04-11T12:24:25.245Z,40.90
2019-04-11T12:27:02.419Z,40.40
2019-04-11T12:29:46.818Z,39.80
2019-04-11T12:32:14.520Z,40.30
2019-04-11T12:34:45.014Z,39.70
2019-04-11T12:37:14.865Z,39.90
2019-04-11T12:39:48.938Z,41.00
2019-04-11T12:42:16.985Z,41.00
2019-04-11T12:45:06.174Z,41.20
2019-04-11T12:47:32.928Z,40.40
2019-04-11T12:50:17.439Z,40.00
2019-04-11T12:52:45.490Z,40.80
2019-04-11T12:55:31.833Z,40.60
2019-04-11T12:58:08.814Z,40.80
2019-04-11T13:00:39.628Z,40.80
2019-04-11T13:03:07.804Z,41.10
2019-04-11T13:05:35.948Z,41.00
2019-04-11T13:08:06.750Z,40.40
2019-04-11T13:10:33.680Z,39.10
2019-04-11T13:13:20.149Z,39.40
2019-04-11T13:15:49.406Z,40.20
2019-04-11T13:18:17.708Z,39.90
2019-04-11T13:20:46.809Z,39.90
2019-04-11T13:23:20.985Z,40.40
2019-04-11T13:26:05.700Z,39.60
2019-04-11T13:28:32.743Z,39.40
2019-04-11T13:31:09.874Z,39.50
2019-04-11T13:33:36.134Z,39.80
2019-04-11T13:36:10.158Z,39.80
2019-04-11T13:38:37.394Z,40.50
2019-04-11T13:41:05.669Z,40.50
2019-04-11T13:43:33.859Z,40.40
2019-04-11T13:46:04.840Z,40.50
2019-04-11T13:48:48.343Z,40.40
2019-04-11T13:51:16.589Z,40.90
2019-04-11T13:54:01.830Z,41.10
2019-04-11T13:56:29.866Z,41.60
2019-04-11T13:59:13.185Z,41.50
2019-04-11T14:01:41.268Z,41.80
2019-04-11T14:04:09.367Z,41.70
2019-04-11T14:06:35.592Z,41.30
2019-04-11T14:09:15.757Z,41.10
2019-04-11T14:11:44.315Z,41.10
2019-04-11T14:14:15.747Z,40.10
2019-04-11T14:16:43.789Z,39.60
2019-04-11T14:19:28.529Z,39.90
2019-04-11T14:21:54.772Z,40.80
2019-04-11T14:24:25.338Z,40.90
2019-04-11T14:26:53.757Z,41.30
2019-04-11T14:29:27.788Z,41.70
2019-04-11T14:31:59.401Z,40.90
2019-04-11T14:34:39.370Z,40.50
2019-04-11T14:37:22.238Z,40.40
2019-04-11T14:39:52.811Z,40.90
2019-04-11T14:42:42.462Z,41.10
2019-04-11T14:45:10.348Z,40.80
2019-04-11T14:47:39.315Z,40.60
2019-04-11T14:50:11.857Z,40.80
2019-04-11T14:52:56.838Z,40.80
2019-04-11T14:55:25.092Z,40.50
2019-04-11T14:58:10.045Z,40.90
2019-04-11T15:00:37.519Z,41.50
2019-04-11T15:03:14.919Z,41.60
2019-04-11T15:05:45.692Z,42.50
2019-04-11T15:08:14.921Z,42.70
2019-04-11T15:10:53.260Z,43.10
2019-04-11T15:13:21.307Z,43.00
2019-04-11T15:15:52.583Z,43.60
2019-04-11T15:18:19.585Z,43.80
2019-04-11T15:20:56.822Z,43.70
2019-04-11T15:23:24.866Z,43.00
2019-04-11T15:26:09.318Z,43.00
2019-04-11T15:28:37.577Z,43.00
2019-04-11T15:31:05.627Z,42.50
2019-04-11T15:33:33.689Z,42.50
2019-04-11T15:36:01.761Z,43.10
2019-04-11T15:38:46.473Z,43.10
2019-04-11T15:41:12.625Z,42.80
2019-04-11T15:43:49.827Z,43.20
2019-04-11T15:46:27.237Z,43.50
2019-04-11T15:49:20.902Z,43.70
2019-04-11T15:51:42.936Z,44.00
2019-04-11T15:54:13.691Z,43.50
2019-04-11T15:56:56.803Z,43.50
2019-04-11T15:59:43.769Z,42.80
2019-04-11T16:02:19.361Z,42.30
2019-04-11T16:04:47.489Z,43.00
2019-04-11T16:07:15.554Z,43.30
2019-04-11T16:09:49.549Z,43.70
2019-04-11T16:12:34.137Z,43.50
2019-04-11T16:15:08.015Z,44.00
2019-04-11T16:17:36.117Z,44.10
2019-04-11T16:20:04.663Z,44.30
2019-04-11T16:22:49.596Z,44.00
2019-04-11T16:25:17.527Z,44.10
2019-04-11T16:28:02.214Z,44.40
2019-04-11T16:30:30.266Z,44.00
2019-04-11T16:33:07.401Z,44.00
2019-04-11T16:35:48.067Z,43.90
2019-04-11T16:38:18.758Z,43.60
2019-04-11T16:41:02.595Z,44.60
2019-04-11T16:43:28.972Z,43.90
2019-04-11T16:46:13.550Z,44.10
2019-04-11T16:48:39.691Z,44.70
2019-04-11T16:51:06.138Z,44.50
2019-04-11T16:53:32.375Z,44.60
2019-04-11T16:55:58.567Z,45.10
2019-04-11T16:58:24.706Z,45.80
2019-04-11T17:00:52.601Z,46.40
2019-04-11T17:03:18.975Z,46.20
2019-04-11T17:05:47.072Z,45.70
2019-04-11T17:08:15.128Z,45.80
2019-04-11T17:11:01.617Z,45.70
2019-04-11T17:13:28.364Z,45.60
2019-04-11T17:15:54.538Z,45.30
2019-04-11T17:18:21.144Z,45.10
2019-04-11T17:20:48.092Z,45.60
2019-04-11T17:23:14.310Z,45.30
2019-04-11T17:25:40.446Z,45.50
2019-04-11T17:28:08.989Z,45.70
2019-04-11T17:30:34.631Z,45.60
2019-04-11T17:33:00.855Z,45.10
2019-04-11T17:35:27.008Z,46.00
2019-04-11T17:37:53.159Z,46.60
2019-04-11T17:40:19.333Z,46.90
2019-04-11T17:42:45.486Z,47.80
2019-04-11T17:45:11.630Z,47.80
2019-04-11T17:47:37.771Z,47.70
2019-04-11T17:50:05.995Z,48.00
2019-04-11T17:52:33.370Z,47.70
2019-04-11T17:55:00.502Z,47.20
2019-04-11T17:57:27.671Z,47.00
2019-04-11T17:59:54.155Z,46.70
2019-04-11T18:02:20.297Z,46.70
2019-04-11T18:04:47.997Z,47.00
2019-04-11T18:07:16.777Z,47.00
2019-04-11T18:09:42.684Z,47.10
2019-04-11T18:12:08.830Z,47.40
2019-04-11T18:14:36.009Z,47.70
2019-04-11T18:17:04.637Z,47.70
2019-04-11T18:19:31.451Z,48.00
2019-04-11T18:22:07.282Z,48.00
2019-04-11T18:24:25.796Z,47.90
2019-04-11T18:26:52.500Z,48.20
2019-04-11T18:29:22.790Z,48.20
2019-04-11T18:31:48.131Z,48.70
2019-04-11T18:34:14.322Z,49.70
2019-04-11T18:36:40.541Z,48.90
2019-04-11T18:39:06.969Z,49.10
2019-04-11T18:41:33.672Z,49.40
2019-04-11T18:43:59.857Z,49.60
2019-04-11T18:46:26.025Z,49.80
2019-04-11T18:48:54.466Z,49.80
2019-04-11T18:51:23.169Z,50.20
2019-04-11T18:53:49.343Z,50.00
2019-04-11T18:56:15.471Z,50.30
2019-04-11T18:58:43.654Z,50.20
2019-04-11T19:01:10.405Z,50.00
2019-04-11T19:03:36.705Z,49.90
2019-04-11T19:06:04.298Z,50.10
2019-04-11T19:08:30.828Z,50.30
2019-04-11T19:10:58.478Z,49.80
2019-04-11T19:13:24.812Z,49.50
2019-04-11T19:15:51.302Z,49.50
2019-04-11T19:18:17.692Z,49.50
2019-04-11T19:20:44.344Z,49.80
2019-04-11T19:23:11.247Z,50.00
2019-04-11T19:25:37.435Z,50.50
2019-04-11T19:28:03.567Z,50.50
2019-04-11T19:30:30.675Z,50.50
2019-04-11T19:32:56.838Z,50.40
2019-04-11T19:35:23.015Z,50.30
2019-04-11T19:37:49.166Z,50.20
2019-04-11T19:40:16.434Z,50.40
2019-04-11T19:42:48.843Z,50.60
2019-04-11T19:45:13.959Z,51.60
2019-04-11T19:47:40.379Z,51.00
2019-04-11T19:50:07.032Z,51.20
2019-04-11T19:52:45.196Z,51.40
2019-04-11T19:55:19.326Z,51.50
2019-04-11T19:57:46.395Z,51.60
2019-04-11T20:00:14.745Z,51.90
2019-04-11T20:02:41.930Z,51.80
2019-04-11T20:05:09.296Z,52.80
2019-04-11T20:07:37.292Z,52.00
2019-04-11T20:10:05.409Z,52.00
2019-04-11T20:12:34.066Z,52.00
2019-04-11T20:15:00.289Z,52.00
2019-04-11T20:17:26.760Z,52.10
2019-04-11T20:20:01.191Z,51.90
2019-04-11T20:22:21.295Z,51.90
2019-04-11T21:02:28.217Z,52.70
2019-04-11T21:04:52.587Z,52.80
2019-04-11T21:07:19.462Z,52.70
2019-04-11T21:09:46.303Z,52.90
2019-04-11T21:12:12.836Z,52.70
2019-04-11T21:14:38.980Z,53.10
2019-04-11T21:17:05.390Z,53.20
2019-04-11T21:19:32.121Z,53.20
2019-04-11T21:21:58.260Z,53.40
2019-04-11T21:24:24.413Z,53.50
2019-04-11T21:26:50.547Z,53.00
2019-04-11T21:29:17.734Z,52.80
2019-04-11T21:31:43.895Z,52.70
2019-04-11T21:34:10.076Z,52.60
2019-04-11T21:36:36.699Z,52.50
2019-04-11T21:39:05.464Z,52.50
2019-04-11T21:42:10.778Z,52.90
2019-04-11T21:44:36.919Z,53.20
2019-04-11T21:47:03.065Z,53.00
2019-04-11T21:49:29.347Z,53.10
2019-04-11T21:51:55.485Z,53.10
2019-04-11T21:54:21.632Z,53.30
2019-04-11T21:56:49.643Z,53.40
2019-04-11T21:59:20.009Z,53.30
2019-04-11T22:01:43.982Z,53.80
2019-04-11T22:04:10.518Z,53.90
2019-04-11T22:06:36.762Z,54.10
2019-04-11T22:09:06.366Z,54.00
2019-04-11T22:11:32.907Z,54.10
2019-04-11T22:13:59.073Z,54.30
2019-04-11T22:16:25.350Z,54.70
2019-04-11T22:18:51.504Z,54.70
2019-04-11T22:21:17.659Z,54.80
2019-04-11T22:23:49.073Z,54.80
2019-04-11T22:26:12.172Z,54.60
2019-04-11T22:28:38.323Z,54.70
2019-04-11T22:31:04.496Z,54.70
2019-04-11T22:33:45.635Z,55.10
2019-04-11T22:36:11.768Z,55.30
2019-04-11T22:38:37.931Z,55.30
2019-04-11T22:41:04.072Z,55.00
2019-04-11T22:43:30.216Z,55.00
2019-04-11T22:45:56.343Z,54.80
2019-04-11T22:48:22.484Z,54.80
2019-04-11T22:50:48.930Z,55.90
2019-04-11T22:53:15.350Z,55.90
2019-04-11T22:55:41.877Z,55.40
2019-04-11T22:58:08.138Z,55.20
2019-04-11T23:00:34.295Z,55.20
2019-04-11T23:03:05.055Z,54.90
2019-04-11T23:05:31.192Z,55.10
2019-04-11T23:07:57.354Z,55.10
2019-04-11T23:10:23.495Z,56.00
2019-04-11T23:12:49.645Z,55.70
2019-04-11T23:15:15.938Z,56.10
2019-04-11T23:17:44.048Z,56.10
2019-04-11T23:20:11.881Z,55.90
2019-04-11T23:22:40.081Z,56.30
2019-04-11T23:25:06.307Z,56.20
2019-04-11T23:27:32.443Z,56.30
2019-04-11T23:29:58.589Z,56.60
2019-04-11T23:32:24.735Z,56.80
2019-04-11T23:34:52.707Z,56.80
2019-04-11T23:37:21.117Z,56.70
2019-04-11T23:39:46.972Z,56.90
2019-04-11T23:42:13.115Z,57.10
2019-04-11T23:44:39.272Z,57.60
2019-04-11T23:47:05.658Z,57.70
2019-04-11T23:49:31.827Z,57.70
2019-04-11T23:51:59.068Z,57.50
2019-04-11T23:54:28.972Z,57.60
2019-04-11T23:56:53.650Z,57.70
2019-04-11T23:59:19.779Z,57.50
